Time;durP1;ratioP1;P1;durP2;ratioP2;P2;SDS_P1;SDS_P2;PMS_P1;PMS_P2;Temp;Humidity;BMP_temperature;BMP_pressure;BME280_temperature;BME280_humidity;BME280_pressure;Samples;Min_cycle;Max_cycle;Signal;HPM_P1;HPM_P2
2023/12/09 00:00:46;;;;;;;5.9;4.2;;;;;;;;;;;;;
2023/12/09 00:03:14;;;;;;;8.5;5;;;;;;;;;;;;;
2023/12/09 00:05:45;;;;;;;8.2;5;;;;;;;;;;;;;
2023/12/09 00:08:17;;;;;;;7;5.2;;;;;;;;;;;;;
2023/12/09 00:10:46;;;;;;;6.5;4.8;;;;;;;;;;;;;
2023/12/09 00:13:14;;;;;;;6;4.6;;;;;;;;;;;;;
2023/12/09 00:15:46;;;;;;;6.1;4;;;;;;;;;;;;;
2023/12/09 00:18:12;;;;;;;6.5;4.3;;;;;;;;;;;;;
2023/12/09 00:20:37;;;;;;;6.2;4.5;;;;;;;;;;;;;
2023/12/09 00:23:02;;;;;;;6.1;4.1;;;;;;;;;;;;;
2023/12/09 00:25:32;;;;;;;6.6;4.1;;;;;;;;;;;;;
2023/12/09 00:27:58;;;;;;;5.3;3.7;;;;;;;;;;;;;
2023/12/09 00:30:24;;;;;;;7.1;5.1;;;;;;;;;;;;;
2023/12/09 00:32:52;;;;;;;10.4;6.6;;;;;;;;;;;;;
2023/12/09 00:35:18;;;;;;;8.6;5.6;;;;;;;;;;;;;
2023/12/09 00:37:43;;;;;;;7.9;4.9;;;;;;;;;;;;;
2023/12/09 00:40:15;;;;;;;6.6;4.7;;;;;;;;;;;;;
2023/12/09 00:42:43;;;;;;;7.5;4.3;;;;;;;;;;;;;
2023/12/09 00:45:08;;;;;;;6.9;4.5;;;;;;;;;;;;;
2023/12/09 00:47:36;;;;;;;6.6;4.9;;;;;;;;;;;;;
2023/12/09 00:50:02;;;;;;;6.2;4.2;;;;;;;;;;;;;
2023/12/09 00:52:29;;;;;;;6.5;4;;;;;;;;;;;;;
2023/12/09 00:54:54;;;;;;;6.4;4.2;;;;;;;;;;;;;
2023/12/09 00:57:24;;;;;;;5.4;3.7;;;;;;;;;;;;;
2023/12/09 00:59:47;;;;;;;3.6;2.9;;;;;;;;;;;;;
2023/12/09 01:02:14;;;;;;;4.5;3;;;;;;;;;;;;;
2023/12/09 01:04:39;;;;;;;2.6;2.3;;;;;;;;;;;;;
2023/12/09 01:07:05;;;;;;;4.3;2.5;;;;;;;;;;;;;
2023/12/09 01:09:31;;;;;;;3.3;2.6;;;;;;;;;;;;;
2023/12/09 01:11:56;;;;;;;2.9;2.4;;;;;;;;;;;;;
2023/12/09 01:14:21;;;;;;;2.9;2.5;;;;;;;;;;;;;
2023/12/09 01:16:47;;;;;;;2.5;2.2;;;;;;;;;;;;;
2023/12/09 01:19:12;;;;;;;2.6;2.3;;;;;;;;;;;;;
2023/12/09 01:21:38;;;;;;;3;2.4;;;;;;;;;;;;;
2023/12/09 01:24:04;;;;;;;2.9;2.1;;;;;;;;;;;;;
2023/12/09 01:26:28;;;;;;;3.2;2.2;;;;;;;;;;;;;
2023/12/09 01:28:53;;;;;;;4.4;2.9;;;;;;;;;;;;;
2023/12/09 01:31:18;;;;;;;4.5;3.1;;;;;;;;;;;;;
2023/12/09 01:33:44;;;;;;;5.3;3.6;;;;;;;;;;;;;
2023/12/09 01:36:10;;;;;;;5;3.3;;;;;;;;;;;;;
2023/12/09 01:38:35;;;;;;;4.6;3.2;;;;;;;;;;;;;
2023/12/09 01:41:00;;;;;;;5.2;3.4;;;;;;;;;;;;;
2023/12/09 01:43:26;;;;;;;4.6;3.3;;;;;;;;;;;;;
2023/12/09 01:45:51;;;;;;;5.2;3.9;;;;;;;;;;;;;
2023/12/09 01:48:17;;;;;;;5.5;3.5;;;;;;;;;;;;;
2023/12/09 01:50:43;;;;;;;5.2;4.1;;;;;;;;;;;;;
2023/12/09 01:53:08;;;;;;;4.5;3.8;;;;;;;;;;;;;
2023/12/09 01:55:33;;;;;;;4;2.9;;;;;;;;;;;;;
2023/12/09 01:58:00;;;;;;;3;2.3;;;;;;;;;;;;;
2023/12/09 02:00:25;;;;;;;3.1;2.2;;;;;;;;;;;;;
2023/12/09 02:02:52;;;;;;;3.2;2.8;;;;;;;;;;;;;
2023/12/09 02:05:17;;;;;;;2.3;2.1;;;;;;;;;;;;;
2023/12/09 02:07:42;;;;;;;2.8;2.2;;;;;;;;;;;;;
2023/12/09 02:10:07;;;;;;;2.2;2;;;;;;;;;;;;;
2023/12/09 02:12:36;;;;;;;2.4;2;;;;;;;;;;;;;
2023/12/09 02:15:01;;;;;;;3;2.7;;;;;;;;;;;;;
2023/12/09 02:17:26;;;;;;;3;2.4;;;;;;;;;;;;;
2023/12/09 02:19:51;;;;;;;2.4;1.7;;;;;;;;;;;;;
2023/12/09 02:22:16;;;;;;;2.2;2;;;;;;;;;;;;;
2023/12/09 02:24:41;;;;;;;2.6;2.2;;;;;;;;;;;;;
2023/12/09 02:27:07;;;;;;;2.7;2.3;;;;;;;;;;;;;
2023/12/09 02:29:34;;;;;;;3.2;2.2;;;;;;;;;;;;;
2023/12/09 02:31:59;;;;;;;2.5;2;;;;;;;;;;;;;
2023/12/09 02:34:25;;;;;;;2.3;2.1;;;;;;;;;;;;;
2023/12/09 02:36:50;;;;;;;4.8;2.1;;;;;;;;;;;;;
2023/12/09 02:39:18;;;;;;;3.3;2.6;;;;;;;;;;;;;
2023/12/09 02:41:43;;;;;;;2.9;2.5;;;;;;;;;;;;;
2023/12/09 02:44:10;;;;;;;3.7;3;;;;;;;;;;;;;
2023/12/09 02:46:35;;;;;;;3.7;3.3;;;;;;;;;;;;;
2023/12/09 02:49:00;;;;;;;3.4;2.7;;;;;;;;;;;;;
2023/12/09 02:51:25;;;;;;;3.6;3.3;;;;;;;;;;;;;
2023/12/09 02:53:51;;;;;;;6;3.9;;;;;;;;;;;;;
2023/12/09 02:56:16;;;;;;;4.5;3.4;;;;;;;;;;;;;
2023/12/09 02:58:43;;;;;;;4;3.2;;;;;;;;;;;;;
2023/12/09 03:01:08;;;;;;;3.8;3;;;;;;;;;;;;;
2023/12/09 03:03:34;;;;;;;3.7;2.5;;;;;;;;;;;;;
2023/12/09 03:05:59;;;;;;;2.5;2.2;;;;;;;;;;;;;
2023/12/09 03:08:26;;;;;;;2.4;2;;;;;;;;;;;;;
2023/12/09 03:10:51;;;;;;;3;2.5;;;;;;;;;;;;;
2023/12/09 03:13:17;;;;;;;3.3;2.5;;;;;;;;;;;;;
2023/12/09 03:15:43;;;;;;;3.3;2.5;;;;;;;;;;;;;
2023/12/09 03:18:09;;;;;;;4.3;2.7;;;;;;;;;;;;;
2023/12/09 03:20:35;;;;;;;4.1;3;;;;;;;;;;;;;
2023/12/09 03:23:04;;;;;;;3.7;2.9;;;;;;;;;;;;;
2023/12/09 03:25:32;;;;;;;4.3;2.9;;;;;;;;;;;;;
2023/12/09 03:27:56;;;;;;;4.3;2.8;;;;;;;;;;;;;
2023/12/09 03:30:22;;;;;;;3.7;2.8;;;;;;;;;;;;;
2023/12/09 03:32:47;;;;;;;5.1;2.5;;;;;;;;;;;;;
2023/12/09 03:35:15;;;;;;;5.5;3.1;;;;;;;;;;;;;
2023/12/09 03:37:40;;;;;;;5.2;2.6;;;;;;;;;;;;;
2023/12/09 03:40:06;;;;;;;3.4;2.7;;;;;;;;;;;;;
2023/12/09 03:42:31;;;;;;;5.4;2.7;;;;;;;;;;;;;
2023/12/09 03:44:56;;;;;;;9.4;4.5;;;;;;;;;;;;;
2023/12/09 03:47:21;;;;;;;11.4;5.1;;;;;;;;;;;;;
2023/12/09 03:49:50;;;;;;;14.5;6.4;;;;;;;;;;;;;
2023/12/09 03:52:15;;;;;;;20.1;8.6;;;;;;;;;;;;;
2023/12/09 03:54:40;;;;;;;10.7;5.3;;;;;;;;;;;;;
2023/12/09 03:57:06;;;;;;;7.8;4.3;;;;;;;;;;;;;
2023/12/09 03:59:32;;;;;;;6;3.5;;;;;;;;;;;;;
2023/12/09 04:02:33;;;;;;;5;3.3;;;;;;;3.17;100;936.3533;;;;
2023/12/09 04:05:05;;;;;;;4.9;3.3;;;;;;;3.15;100;936.2567;;;;
2023/12/09 04:07:36;;;;;;;4.5;3.2;;;;;;;3.14;100;936.2202;;;;
2023/12/09 04:10:01;;;;;;;4.4;3;;;;;;;3.14;100;936.1273;;;;
2023/12/09 04:12:26;;;;;;;2.9;2.3;;;;;;;3.27;100;936.0925;;;;
2023/12/09 04:14:54;;;;;;;2.8;2.3;;;;;;;3.2;100;936.0762;;;;
2023/12/09 04:17:21;;;;;;;3.9;2.2;;;;;;;3.22;100;936.1506;;;;
2023/12/09 04:19:45;;;;;;;2.8;2.4;;;;;;;3.15;100;936.0812;;;;
2023/12/09 04:22:14;;;;;;;2.7;2.2;;;;;;;3.11;100;936.0775;;;;
2023/12/09 04:24:40;;;;;;;5.3;2.4;;;;;;;3.13;100;935.9821;;;;
2023/12/09 04:27:04;;;;;;;4;2.3;;;;;;;3.13;100;936.0017;;;;
2023/12/09 04:29:32;;;;;;;2.8;2.2;;;;;;;3.25;100;935.9705;;;;
2023/12/09 04:31:57;;;;;;;3.1;2.4;;;;;;;3.31;99.45605;935.8718;;;;
2023/12/09 04:34:29;;;;;;;3.2;2.8;;;;;;;3.31;99.29004;935.8317;;;;
2023/12/09 04:37:02;;;;;;;2.7;2.1;;;;;;;3.32;99.39355;935.7802;;;;
2023/12/09 04:39:38;;;;;;;2.9;2.2;;;;;;;3.22;99.81934;935.6746;;;;
2023/12/09 04:42:06;;;;;;;2.8;1.9;;;;;;;3.23;99.87695;935.7473;;;;
2023/12/09 04:44:31;;;;;;;2.2;1.7;;;;;;;3.18;100;935.6871;;;;
2023/12/09 04:46:56;;;;;;;2.7;1.6;;;;;;;3.14;100;935.7606;;;;
2023/12/09 04:49:26;;;;;;;3.1;2;;;;;;;3.2;100;935.753;;;;
2023/12/09 04:51:51;;;;;;;4;2.7;;;;;;;3.12;100;935.7019;;;;
2023/12/09 04:54:19;;;;;;;9.6;8;;;;;;;3.1;100;935.668;;;;
2023/12/09 04:56:44;;;;;;;7.9;6.4;;;;;;;3.16;100;935.6882;;;;
2023/12/09 04:59:09;;;;;;;4.8;3.7;;;;;;;3.12;100;935.7065;;;;
2023/12/09 05:01:38;;;;;;;3.2;2.6;;;;;;;3.18;99.96777;935.685;;;;
2023/12/09 05:04:03;;;;;;;4.2;2.4;;;;;;;3.17;99.66016;935.7654;;;;
2023/12/09 05:06:31;;;;;;;3.9;2.4;;;;;;;3.24;99.63477;935.7037;;;;
2023/12/09 05:08:56;;;;;;;4.2;2.6;;;;;;;3.16;99.43555;935.7378;;;;
2023/12/09 05:11:29;;;;;;;3.8;2.3;;;;;;;3.08;99.85449;935.7651;;;;
2023/12/09 05:13:54;;;;;;;2.7;2.4;;;;;;;2.98;100;935.6931;;;;
2023/12/09 05:16:25;;;;;;;3.7;2.7;;;;;;;2.95;100;935.7806;;;;
2023/12/09 05:18:51;;;;;;;3.3;2.5;;;;;;;2.91;100;935.7188;;;;
2023/12/09 05:21:16;;;;;;;4.2;2.6;;;;;;;2.93;99.88574;935.7606;;;;
2023/12/09 05:23:46;;;;;;;3.2;2.4;;;;;;;3.1;98.90332;935.8442;;;;
2023/12/09 05:26:11;;;;;;;3.7;2.4;;;;;;;3.01;98.6709;935.8115;;;;
2023/12/09 05:28:40;;;;;;;2.5;2.3;;;;;;;2.93;98.97559;935.835;;;;
2023/12/09 05:31:05;;;;;;;2.1;1.9;;;;;;;2.82;99.23047;935.8676;;;;
2023/12/09 05:33:35;;;;;;;2.1;1.8;;;;;;;2.79;99;935.7601;;;;
2023/12/09 05:36:00;;;;;;;2.5;2;;;;;;;2.76;99.11621;935.7261;;;;
2023/12/09 05:38:26;;;;;;;2.1;1.9;;;;;;;2.75;99.14844;935.688;;;;
2023/12/09 05:41:04;;;;;;;2.4;1.8;;;;;;;2.9;98.62109;935.7744;;;;
2023/12/09 05:43:29;;;;;;;2.3;1.7;;;;;;;2.88;98.29395;935.6733;;;;
2023/12/09 05:45:54;;;;;;;3.3;1.7;;;;;;;2.84;98.20508;935.7441;;;;
2023/12/09 05:48:29;;;;;;;2.2;2;;;;;;;2.79;98.47266;935.7838;;;;
2023/12/09 05:50:54;;;;;;;3.6;2.3;;;;;;;2.78;98.21289;935.8375;;;;
2023/12/09 05:53:27;;;;;;;2.2;1.8;;;;;;;2.83;98.25879;935.8695;;;;
2023/12/09 05:55:52;;;;;;;1.8;1.5;;;;;;;2.73;98.48242;935.8265;;;;
2023/12/09 05:58:18;;;;;;;2.3;1.7;;;;;;;2.74;98.45117;935.8923;;;;
2023/12/09 06:00:46;;;;;;;1.8;1.5;;;;;;;2.68;98.68457;936.0087;;;;
2023/12/09 06:03:10;;;;;;;1.7;1.6;;;;;;;2.72;98.44434;936.1225;;;;
2023/12/09 06:05:40;;;;;;;2.2;1.8;;;;;;;2.69;98.69824;936.0808;;;;
2023/12/09 06:08:05;;;;;;;3.4;1.6;;;;;;;2.78;98.54883;936.0388;;;;
2023/12/09 06:10:33;;;;;;;1.7;1.5;;;;;;;2.75;98.75586;936.0921;;;;
2023/12/09 06:12:58;;;;;;;2.5;1.7;;;;;;;2.68;98.80664;936.1336;;;;
2023/12/09 06:15:24;;;;;;;3.2;1.9;;;;;;;2.66;99.20605;936.1174;;;;
2023/12/09 06:17:52;;;;;;;4;2.2;;;;;;;2.62;99.62109;936.0796;;;;
2023/12/09 06:20:19;;;;;;;2.9;2.2;;;;;;;2.64;99.58008;936.1014;;;;
2023/12/09 06:22:47;;;;;;;3.5;2.5;;;;;;;2.56;99.59668;936.1008;;;;
2023/12/09 06:25:12;;;;;;;5.4;2.8;;;;;;;2.51;99.40723;936.1424;;;;
2023/12/09 06:27:37;;;;;;;6.7;3.5;;;;;;;2.51;99.40723;936.1724;;;;
2023/12/09 06:30:02;;;;;;;5.6;3.1;;;;;;;2.49;99.23242;936.1786;;;;
2023/12/09 06:32:30;;;;;;;4.4;3;;;;;;;2.53;98.89355;936.2159;;;;
2023/12/09 06:34:56;;;;;;;4.5;3.3;;;;;;;2.5;98.70996;936.2081;;;;
2023/12/09 06:37:28;;;;;;;6.9;2.7;;;;;;;2.5;98.70801;936.2385;;;;
2023/12/09 06:39:56;;;;;;;4.5;3.2;;;;;;;2.54;98.54883;936.3209;;;;
2023/12/09 06:42:24;;;;;;;5.3;2.7;;;;;;;2.48;98.77148;936.2025;;;;
2023/12/09 06:44:49;;;;;;;3.8;3;;;;;;;2.46;98.93555;936.3119;;;;
2023/12/09 06:47:19;;;;;;;5.3;3.5;;;;;;;2.47;99.03613;936.3616;;;;
2023/12/09 06:49:44;;;;;;;4.5;3.1;;;;;;;2.47;99.13672;936.3756;;;;
2023/12/09 06:52:13;;;;;;;4.6;3.5;;;;;;;2.51;99.40527;936.3881;;;;
2023/12/09 06:54:38;;;;;;;6.6;3.8;;;;;;;2.51;99.55078;936.4314;;;;
2023/12/09 06:57:06;;;;;;;5.3;4;;;;;;;2.58;99.41113;936.3719;;;;
2023/12/09 06:59:31;;;;;;;7.3;4.8;;;;;;;2.63;99.16309;936.447;;;;
2023/12/09 07:02:01;;;;;;;10.5;6.2;;;;;;;2.64;99.22168;936.4419;;;;
2023/12/09 07:04:26;;;;;;;9.6;5.8;;;;;;;2.66;99.30664;936.4885;;;;
2023/12/09 07:06:54;;;;;;;9.5;6.1;;;;;;;2.67;99.33984;936.4924;;;;
2023/12/09 07:09:17;;;;;;;10.8;6.2;;;;;;;2.7;99.20508;936.6125;;;;
2023/12/09 07:11:42;;;;;;;7.9;5.3;;;;;;;2.68;99.38965;936.5785;;;;
2023/12/09 07:14:07;;;;;;;7.9;5.2;;;;;;;2.7;99.53027;936.5833;;;;
2023/12/09 07:16:33;;;;;;;9.8;6.7;;;;;;;2.75;99.30469;936.5694;;;;
2023/12/09 07:19:02;;;;;;;8.3;5.4;;;;;;;2.85;98.95996;936.5953;;;;
2023/12/09 07:21:32;;;;;;;32.8;24.7;;;;;;;2.89;98.80078;936.4747;;;;
2023/12/09 07:23:57;;;;;;;42.8;33.6;;;;;;;2.89;98.93555;936.4716;;;;
2023/12/09 07:26:26;;;;;;;22;19.7;;;;;;;2.86;99.07422;936.4406;;;;
2023/12/09 07:28:51;;;;;;;11.2;8.8;;;;;;;2.85;99.35059;936.3136;;;;
2023/12/09 07:31:17;;;;;;;8.7;5.9;;;;;;;2.94;99.02441;936.4026;;;;
2023/12/09 07:33:42;;;;;;;8.6;5.6;;;;;;;2.9;99.21582;936.361;;;;
2023/12/09 07:36:11;;;;;;;7.9;5.2;;;;;;;2.92;99.35645;936.4113;;;;
2023/12/09 07:38:36;;;;;;;7.4;4.7;;;;;;;3.02;99.03223;936.3929;;;;
2023/12/09 07:41:07;;;;;;;8.8;5.6;;;;;;;3.08;98.2832;936.3786;;;;
2023/12/09 07:43:37;;;;;;;10;5.7;;;;;;;3;98.8457;936.3674;;;;
2023/12/09 07:46:06;;;;;;;7.8;5.3;;;;;;;3.14;98.62207;936.3018;;;;
2023/12/09 07:48:31;;;;;;;6.2;4.4;;;;;;;3.18;98.23926;936.275;;;;
2023/12/09 07:50:58;;;;;;;7.7;4.8;;;;;;;3.19;98.5;936.25;;;;
2023/12/09 07:53:23;;;;;;;8.3;5.8;;;;;;;3.19;98.8252;936.1767;;;;
2023/12/09 07:55:51;;;;;;;9.1;6.4;;;;;;;3.25;98.66895;936.1334;;;;
2023/12/09 07:58:16;;;;;;;8.9;6.1;;;;;;;3.16;99.04297;936.1021;;;;
2023/12/09 08:00:43;;;;;;;8.8;6.2;;;;;;;3.11;99.38965;936.1561;;;;
2023/12/09 08:03:09;;;;;;;9.2;6.4;;;;;;;3.14;99.40723;936.069;;;;
2023/12/09 08:05:34;;;;;;;9;6.1;;;;;;;3.18;99.52832;936.0215;;;;
2023/12/09 08:07:59;;;;;;;9.9;6.4;;;;;;;3.17;99.61719;936.0717;;;;
2023/12/09 08:10:24;;;;;;;11.4;8.1;;;;;;;3.32;99.11426;935.9911;;;;
2023/12/09 08:12:53;;;;;;;12;8.1;;;;;;;3.37;98.95703;935.9785;;;;
2023/12/09 08:15:21;;;;;;;11.6;7.7;;;;;;;3.35;99.28711;936.0314;;;;
2023/12/09 08:17:47;;;;;;;9.9;6.8;;;;;;;3.44;98.96289;935.9647;;;;
2023/12/09 08:20:16;;;;;;;8.9;6.4;;;;;;;3.48;98.76855;935.9644;;;;
2023/12/09 08:22:41;;;;;;;5.9;5;;;;;;;3.47;99.2041;935.9426;;;;
2023/12/09 08:25:08;;;;;;;6;5.4;;;;;;;3.66;99.08008;935.9451;;;;
2023/12/09 08:27:32;;;;;;;6.1;3.9;;;;;;;3.89;99.3125;935.8806;;;;
2023/12/09 08:30:00;;;;;;;7.1;3.8;;;;;;;4.28;98.46973;935.9731;;;;
2023/12/09 08:32:25;;;;;;;4.2;3.3;;;;;;;4.56;96.6084;935.9632;;;;
2023/12/09 08:34:52;;;;;;;6.6;3.9;;;;;;;4.68;95.78125;935.8771;;;;
2023/12/09 08:37:24;;;;;;;8.1;5.5;;;;;;;4.86;94.95215;935.8483;;;;
2023/12/09 08:39:42;;;;;;;5;3.9;;;;;;;4.99;93.4043;935.8682;;;;
2023/12/09 08:42:08;;;;;;;3.2;2.8;;;;;;;4.9;92.69727;935.8469;;;;
2023/12/09 08:44:33;;;;;;;5.4;3;;;;;;;4.81;93.1748;935.8896;;;;
2023/12/09 08:47:02;;;;;;;5;3.6;;;;;;;4.82;93.36719;935.9434;;;;
2023/12/09 08:49:28;;;;;;;5.6;3.7;;;;;;;4.94;93.37012;935.9954;;;;
2023/12/09 08:51:58;;;;;;;5.6;3.2;;;;;;;4.97;93.45703;936.0153;;;;
2023/12/09 08:54:30;;;;;;;8.3;6.1;;;;;;;5.07;92.62207;935.9764;;;;
2023/12/09 08:56:58;;;;;;;8;6.9;;;;;;;5.05;92.30176;935.9016;;;;
2023/12/09 08:59:23;;;;;;;15.1;13.5;;;;;;;5.02;92.88086;935.9292;;;;
2023/12/09 09:01:53;;;;;;;12.9;8.2;;;;;;;5.15;92.71582;935.8347;;;;
2023/12/09 09:04:23;;;;;;;16.3;8.5;;;;;;;5.15;92.38184;935.9114;;;;
2023/12/09 09:06:48;;;;;;;31.1;15.9;;;;;;;5.2;92.43457;935.9638;;;;
2023/12/09 09:09:14;;;;;;;18.1;8.7;;;;;;;5.18;92.74902;935.9398;;;;
2023/12/09 09:11:40;;;;;;;10.1;5.7;;;;;;;5.15;93.16895;935.9705;;;;
2023/12/09 09:14:09;;;;;;;21.1;13.8;;;;;;;5.11;93.82617;935.9167;;;;
2023/12/09 09:16:35;;;;;;;12.4;7.8;;;;;;;5.12;93.53516;935.8159;;;;
2023/12/09 09:19:04;;;;;;;8;5.2;;;;;;;5.21;93.1582;935.7986;;;;
2023/12/09 09:21:33;;;;;;;11.3;8.7;;;;;;;5.25;93.25879;935.8376;;;;
2023/12/09 09:23:59;;;;;;;10.1;6.9;;;;;;;5.3;92.96582;935.7111;;;;
2023/12/09 09:26:23;;;;;;;7.6;6.9;;;;;;;5.48;92.30566;935.6171;;;;
2023/12/09 09:28:54;;;;;;;5.8;3.4;;;;;;;5.78;91.28418;935.5879;;;;
2023/12/09 09:31:27;;;;;;;7.5;5.7;;;;;;;6.1;90.52832;935.5446;;;;
2023/12/09 09:34:01;;;;;;;5.5;3.8;;;;;;;6.44;88.78906;935.5103;;;;
2023/12/09 09:36:26;;;;;;;4.3;3.1;;;;;;;6.56;87.77539;935.4012;;;;
2023/12/09 09:38:52;;;;;;;3.8;3.2;;;;;;;6.6;88.28223;935.4266;;;;
2023/12/09 09:41:22;;;;;;;5.3;3.6;;;;;;;7.3;87.67773;935.3889;;;;
2023/12/09 09:43:47;;;;;;;8;5.6;;;;;;;7.95;85.43848;935.3547;;;;
2023/12/09 09:46:16;;;;;;;5.7;3.3;;;;;;;8.29;81.44922;935.2997;;;;
2023/12/09 09:48:48;;;;;;;4;2.4;;;;;;;8.42;80.15723;935.1464;;;;
2023/12/09 09:51:18;;;;;;;6.4;3.4;;;;;;;8.6;80.36133;935.2033;;;;
2023/12/09 09:53:43;;;;;;;3;1.8;;;;;;;8.68;78.93066;935.1887;;;;
2023/12/09 09:56:09;;;;;;;5.2;4.7;;;;;;;8.61;78.05566;935.1558;;;;
2023/12/09 09:58:38;;;;;;;5.2;3.6;;;;;;;8.73;78.25879;935.1178;;;;
2023/12/09 10:01:09;;;;;;;6.4;4.5;;;;;;;8.94;77.80859;935.0624;;;;
2023/12/09 10:03:38;;;;;;;20.9;12.2;;;;;;;9.15;76.26465;934.8828;;;;
2023/12/09 10:06:04;;;;;;;7.6;6.6;;;;;;;9.18;75.83691;934.9919;;;;
2023/12/09 10:08:32;;;;;;;6;4.4;;;;;;;9.11;76.62207;934.9579;;;;
2023/12/09 10:10:57;;;;;;;3.7;2.8;;;;;;;9;74.77148;934.9272;;;;
2023/12/09 10:13:26;;;;;;;5;3.9;;;;;;;8.98;74.95996;934.7618;;;;
2023/12/09 10:15:56;;;;;;;4.8;3.2;;;;;;;9.08;75.53516;934.5756;;;;
2023/12/09 10:18:22;;;;;;;3.6;3.2;;;;;;;9.05;75.67773;934.5349;;;;
2023/12/09 10:20:47;;;;;;;4.2;2.9;;;;;;;9.19;74.9502;934.4988;;;;
2023/12/09 10:23:15;;;;;;;2.7;1.6;;;;;;;9.03;75.58398;934.4711;;;;
2023/12/09 10:25:40;;;;;;;3.4;1.6;;;;;;;9.23;75.1748;934.3309;;;;
2023/12/09 10:28:06;;;;;;;2.2;1.7;;;;;;;9.33;75.24902;934.1411;;;;
2023/12/09 10:30:31;;;;;;;3.5;2.5;;;;;;;9.6;74.32813;934.0549;;;;
2023/12/09 10:33:02;;;;;;;4.1;2.3;;;;;;;9.43;74.01367;934.1158;;;;
2023/12/09 10:35:33;;;;;;;2;1.7;;;;;;;9.21;74.35059;934.0981;;;;
2023/12/09 10:38:03;;;;;;;3.2;2;;;;;;;9.22;75.29688;934.1156;;;;
2023/12/09 10:40:32;;;;;;;2.4;2.2;;;;;;;9.3;74.24121;934.0955;;;;
2023/12/09 10:42:59;;;;;;;3.4;2.6;;;;;;;9.19;75.41699;933.988;;;;
2023/12/09 10:45:25;;;;;;;3;2.3;;;;;;;9.02;74.2832;934.0017;;;;
2023/12/09 10:47:56;;;;;;;2.2;1.2;;;;;;;8.77;75.33203;934.0069;;;;
2023/12/09 10:50:22;;;;;;;2.3;1.5;;;;;;;8.74;76.29297;933.8971;;;;
2023/12/09 10:52:49;;;;;;;2.9;1.6;;;;;;;8.76;76.29785;933.7512;;;;
2023/12/09 10:55:23;;;;;;;1.6;1.4;;;;;;;8.68;76.38477;933.7513;;;;
2023/12/09 10:57:49;;;;;;;2.2;1.4;;;;;;;8.52;76.7207;933.729;;;;
2023/12/09 11:00:15;;;;;;;2.2;1.4;;;;;;;8.36;77.63672;933.6945;;;;
2023/12/09 11:02:40;;;;;;;1.4;1.1;;;;;;;8.21;78.47168;933.6514;;;;
2023/12/09 11:07:15;;;;;;;3;1.8;;;;;;;8.23;78.18164;933.6065;;;;
2023/12/09 11:09:40;;;;;;;2.7;1.8;;;;;;;8.21;78.39258;933.6816;;;;
2023/12/09 11:12:11;;;;;;;1.6;1;;;;;;;8.19;77.42188;933.7366;;;;
2023/12/09 11:14:41;;;;;;;0.9;0.8;;;;;;;8.17;77.25;933.7435;;;;
2023/12/09 11:17:05;;;;;;;1.8;1.2;;;;;;;8.03;78.24609;933.7475;;;;
2023/12/09 11:19:38;;;;;;;2;1.5;;;;;;;8.11;77.79492;933.6929;;;;
2023/12/09 11:22:03;;;;;;;1.6;1.5;;;;;;;7.97;78.84766;933.6608;;;;
2023/12/09 11:24:32;;;;;;;2.4;1.3;;;;;;;8;78.40039;933.5709;;;;
2023/12/09 11:27:00;;;;;;;1.8;1.4;;;;;;;7.9;78.76758;933.5341;;;;
2023/12/09 11:29:25;;;;;;;1.9;1.4;;;;;;;7.9;78.81348;933.4279;;;;
2023/12/09 11:31:54;;;;;;;3.9;1.2;;;;;;;7.86;78.90723;933.4543;;;;
2023/12/09 11:34:19;;;;;;;2.1;1.2;;;;;;;7.83;79.09473;933.4222;;;;
2023/12/09 11:36:49;;;;;;;2.8;1.6;;;;;;;7.82;78.89844;933.3627;;;;
2023/12/09 11:39:22;;;;;;;1.8;1.3;;;;;;;7.88;78.52441;933.2856;;;;
2023/12/09 11:41:47;;;;;;;1.7;1.2;;;;;;;7.8;78.48828;933.176;;;;
2023/12/09 11:44:19;;;;;;;1.8;1.1;;;;;;;7.76;78.95508;933.0787;;;;
2023/12/09 11:46:47;;;;;;;1.6;0.9;;;;;;;7.71;79.01465;933.0211;;;;
2023/12/09 11:49:14;;;;;;;1.5;1.1;;;;;;;7.73;78.30566;932.9977;;;;
2023/12/09 11:51:39;;;;;;;1.4;1.2;;;;;;;7.68;78.66992;933.0112;;;;
2023/12/09 11:54:09;;;;;;;1.7;1;;;;;;;7.61;79.40527;932.8893;;;;
2023/12/09 11:56:33;;;;;;;1.9;1.4;;;;;;;7.55;80.09766;932.8954;;;;
2023/12/09 11:59:00;;;;;;;3;2.7;;;;;;;7.45;81.04297;932.808;;;;
2023/12/09 12:01:27;;;;;;;4.3;2.8;;;;;;;7.4;81.46387;932.6794;;;;
2023/12/09 12:03:55;;;;;;;3.2;2.2;;;;;;;7.32;81.85645;932.5359;;;;
2023/12/09 12:06:24;;;;;;;4.2;2.1;;;;;;;7.28;81.89453;932.6329;;;;
2023/12/09 12:08:49;;;;;;;4.5;2.7;;;;;;;7.33;82.2207;932.5931;;;;
2023/12/09 12:11:17;;;;;;;5.7;2.6;;;;;;;7.26;82.44434;932.5407;;;;
2023/12/09 12:13:43;;;;;;;3.6;2.6;;;;;;;7.32;82.52637;932.4711;;;;
2023/12/09 12:16:16;;;;;;;5;2.8;;;;;;;7.32;82.87598;932.4939;;;;
2023/12/09 12:18:48;;;;;;;3.5;2.7;;;;;;;7.28;82.79883;932.3715;;;;
2023/12/09 12:21:16;;;;;;;4.8;3.3;;;;;;;7.17;83.09766;932.2883;;;;
2023/12/09 12:23:42;;;;;;;6.1;3.4;;;;;;;7.09;83.4209;932.0665;;;;
2023/12/09 12:26:07;;;;;;;7.1;3.4;;;;;;;7.07;83.62012;932.1423;;;;
2023/12/09 12:28:33;;;;;;;3.6;2.3;;;;;;;7.07;83.55176;932.0505;;;;
2023/12/09 12:31:04;;;;;;;4.8;2.8;;;;;;;7.1;83.30957;932.0089;;;;
2023/12/09 12:33:35;;;;;;;5.2;3.1;;;;;;;7.03;83.61328;931.9264;;;;
2023/12/09 12:36:03;;;;;;;4.9;3.7;;;;;;;7.09;83.77246;931.8663;;;;
2023/12/09 12:38:28;;;;;;;6.1;3.9;;;;;;;7.15;83.85059;931.76;;;;
2023/12/09 12:40:57;;;;;;;7;4.8;;;;;;;7.12;84.44629;931.7297;;;;
2023/12/09 12:43:22;;;;;;;6.8;4.3;;;;;;;7.11;84.57031;931.6567;;;;
2023/12/09 12:45:51;;;;;;;7.6;4.7;;;;;;;7.04;84.86035;931.5862;;;;
2023/12/09 12:48:19;;;;;;;8.1;4.6;;;;;;;6.97;85.25586;931.5131;;;;
2023/12/09 12:50:44;;;;;;;7.1;3.4;;;;;;;6.95;85.64844;931.4638;;;;
2023/12/09 12:53:15;;;;;;;7.5;3.1;;;;;;;6.86;85.96777;931.4311;;;;
2023/12/09 12:55:40;;;;;;;6.5;2.3;;;;;;;6.81;85.98145;931.455;;;;
2023/12/09 12:58:08;;;;;;;4;1.9;;;;;;;6.75;86.05957;931.3028;;;;
2023/12/09 13:00:33;;;;;;;3.4;1.4;;;;;;;6.68;86.12598;931.2648;;;;
2023/12/09 13:02:58;;;;;;;1.9;1.3;;;;;;;6.65;86.13965;931.285;;;;
2023/12/09 13:05:24;;;;;;;3.7;2;;;;;;;6.59;86.46777;931.2436;;;;
2023/12/09 13:07:50;;;;;;;4;2.5;;;;;;;6.5;86.95898;931.2567;;;;
2023/12/09 13:10:20;;;;;;;7.1;3.2;;;;;;;6.47;86.69336;931.152;;;;
2023/12/09 13:12:50;;;;;;;15.7;7.2;;;;;;;6.32;88.31445;931.1536;;;;
2023/12/09 13:15:15;;;;;;;17.4;8.6;;;;;;;6.38;88.74414;931.1813;;;;
2023/12/09 13:17:44;;;;;;;16.9;7.9;;;;;;;6.26;89.31738;931.0144;;;;
2023/12/09 13:20:09;;;;;;;10.4;5.9;;;;;;;6.15;89.29688;930.9858;;;;
2023/12/09 13:22:37;;;;;;;6.5;4.6;;;;;;;6.08;89.4834;930.9508;;;;
2023/12/09 13:25:03;;;;;;;9.4;5.9;;;;;;;6.08;89.12305;930.8939;;;;
2023/12/09 13:27:36;;;;;;;10.2;5.9;;;;;;;5.94;89.56934;930.7779;;;;
2023/12/09 13:29:59;;;;;;;8.3;5;;;;;;;5.86;89.63184;930.8719;;;;
2023/12/09 13:32:27;;;;;;;7.5;4.9;;;;;;;5.78;90.39355;930.7773;;;;
2023/12/09 13:34:52;;;;;;;6.3;4.6;;;;;;;5.74;90.71387;930.7;;;;
2023/12/09 13:37:19;;;;;;;8.9;5.7;;;;;;;5.77;90.81934;930.7557;;;;
2023/12/09 13:39:47;;;;;;;11.6;7.2;;;;;;;5.69;91.24414;930.5769;;;;
2023/12/09 13:42:12;;;;;;;8.3;5.7;;;;;;;5.79;90.99414;930.6359;;;;
2023/12/09 13:44:38;;;;;;;6.4;4.4;;;;;;;5.71;91.17969;930.5898;;;;
2023/12/09 13:47:02;;;;;;;7.2;3.7;;;;;;;5.6;91.62891;930.4323;;;;
2023/12/09 13:49:31;;;;;;;6.2;3.9;;;;;;;5.62;92.0752;930.3412;;;;
2023/12/09 13:51:56;;;;;;;6.2;4.3;;;;;;;5.67;91.99414;930.2394;;;;
2023/12/09 13:54:24;;;;;;;8;4.7;;;;;;;5.65;92.05859;930.1775;;;;
2023/12/09 13:56:50;;;;;;;4.9;3.8;;;;;;;5.69;92.27148;930.0485;;;;
2023/12/09 13:59:17;;;;;;;5.7;4.1;;;;;;;5.71;91.90039;930.1024;;;;
2023/12/09 14:01:46;;;;;;;7;4.5;;;;;;;5.85;91.58203;929.9839;;;;
2023/12/09 14:04:11;;;;;;;3.9;2.9;;;;;;;5.8;91.78418;929.9852;;;;
2023/12/09 14:06:38;;;;;;;7.2;4.4;;;;;;;5.83;91.40625;930.0278;;;;
2023/12/09 14:09:07;;;;;;;8.6;5.4;;;;;;;5.82;91.18066;929.9891;;;;
2023/12/09 14:11:31;;;;;;;7.8;5.6;;;;;;;5.65;91.4375;929.9263;;;;
2023/12/09 14:13:54;;;;;;;10.3;5.3;;;;;;;5.63;91.44531;929.9403;;;;
2023/12/09 14:16:22;;;;;;;9.2;6;;;;;;;5.54;91.58398;929.8771;;;;
2023/12/09 14:18:47;;;;;;;9;6.3;;;;;;;5.51;91.39746;929.7006;;;;
2023/12/09 14:21:14;;;;;;;13.2;8.2;;;;;;;5.51;91.36328;929.905;;;;
2023/12/09 14:23:39;;;;;;;23.1;14.6;;;;;;;5.46;91.56641;929.9856;;;;
2023/12/09 14:26:05;;;;;;;16.6;9.9;;;;;;;5.24;92.44434;929.9355;;;;
2023/12/09 14:28:30;;;;;;;15.9;8.4;;;;;;;5.25;92.35645;929.8315;;;;
2023/12/09 14:30:57;;;;;;;11.1;6.4;;;;;;;5.33;91.50488;929.6511;;;;
2023/12/09 14:33:22;;;;;;;10.1;6.6;;;;;;;5.23;91.90137;929.7617;;;;
2023/12/09 14:35:48;;;;;;;12.2;8.1;;;;;;;5.14;92.02832;929.8342;;;;
2023/12/09 14:38:14;;;;;;;15.8;8.3;;;;;;;5.08;92.00391;929.8191;;;;
2023/12/09 14:40:42;;;;;;;17.4;9.6;;;;;;;5.01;92.23633;929.7563;;;;
2023/12/09 14:43:08;;;;;;;16;10.1;;;;;;;4.99;92.70703;929.7258;;;;
2023/12/09 14:45:36;;;;;;;24.6;12.2;;;;;;;5.01;92.47266;929.7374;;;;
2023/12/09 14:48:01;;;;;;;28.8;14.1;;;;;;;4.97;92.57715;929.7712;;;;
2023/12/09 14:50:31;;;;;;;22.2;12;;;;;;;4.95;92.49512;929.8158;;;;
2023/12/09 14:53:02;;;;;;;18.4;10.5;;;;;;;4.87;92.67969;929.7537;;;;
2023/12/09 14:55:36;;;;;;;13.1;7.7;;;;;;;4.8;92.91211;929.8122;;;;
2023/12/09 14:58:04;;;;;;;13.8;7.9;;;;;;;4.68;93.17969;929.8938;;;;
2023/12/09 15:00:34;;;;;;;12.4;6.9;;;;;;;4.78;92.88574;929.8963;;;;
2023/12/09 15:02:59;;;;;;;12.6;6.7;;;;;;;4.87;92.37598;929.82;;;;
2023/12/09 15:05:25;;;;;;;14.8;7.6;;;;;;;4.81;92.85547;929.7037;;;;
2023/12/09 15:07:50;;;;;;;9.9;6.3;;;;;;;4.8;92.97949;929.7933;;;;
2023/12/09 15:10:16;;;;;;;9.6;5.1;;;;;;;4.74;92.98828;929.8002;;;;
2023/12/09 15:12:42;;;;;;;8.9;4.7;;;;;;;4.73;92.69531;929.7449;;;;
2023/12/09 15:15:12;;;;;;;7.8;5.4;;;;;;;4.76;93.24219;929.7004;;;;
2023/12/09 15:17:38;;;;;;;12.6;8.2;;;;;;;4.71;93.81641;929.6395;;;;
2023/12/09 15:20:05;;;;;;;15.7;9.1;;;;;;;4.75;93.92773;929.5203;;;;
2023/12/09 15:22:29;;;;;;;17.6;9.6;;;;;;;4.73;93.76367;929.2717;;;;
2023/12/09 15:24:56;;;;;;;16.1;9.7;;;;;;;4.83;93.19922;929.2294;;;;
2023/12/09 15:27:21;;;;;;;14.5;9.7;;;;;;;4.73;93.38281;929.1519;;;;
2023/12/09 15:29:46;;;;;;;14.2;8.7;;;;;;;4.81;92.90039;929.024;;;;
2023/12/09 15:32:11;;;;;;;12.8;7.8;;;;;;;4.63;93.71973;929.0098;;;;
2023/12/09 15:34:38;;;;;;;14.9;8.3;;;;;;;4.64;93.68945;928.9202;;;;
2023/12/09 15:37:03;;;;;;;11.9;7;;;;;;;4.63;93.77539;928.8917;;;;
2023/12/09 15:39:32;;;;;;;10.6;6.1;;;;;;;4.64;93.95801;928.8578;;;;
2023/12/09 15:41:57;;;;;;;8.3;4.5;;;;;;;4.66;93.72754;928.7416;;;;
2023/12/09 15:44:22;;;;;;;6.3;3.7;;;;;;;4.58;94.08105;928.6635;;;;
2023/12/09 15:46:47;;;;;;;6.9;4.4;;;;;;;4.49;94.30859;928.6313;;;;
2023/12/09 15:49:14;;;;;;;6.8;4.4;;;;;;;4.56;94.11133;928.5378;;;;
2023/12/09 15:51:41;;;;;;;6.7;5.1;;;;;;;4.51;94.45703;928.2603;;;;